sensor_id;sensor_type;location;lat;lon;timestamp;P1;durP1;ratioP1;P2;durP2;ratioP2
57790;SDS011;43621;51.798;21.588;2023-03-02T00:02:02;142.80;;;68.40;;
57790;SDS011;43621;51.798;21.588;2023-03-02T00:06:12;124.20;;;59.40;;
57790;SDS011;43621;51.798;21.588;2023-03-02T00:10:14;117.20;;;57.70;;
57790;SDS011;43621;51.798;21.588;2023-03-02T00:14:16;128.10;;;60.50;;
57790;SDS011;43621;51.798;21.588;2023-03-02T00:18:18;111.90;;;59.20;;
57790;SDS011;43621;51.798;21.588;2023-03-02T00:22:20;124.60;;;63.50;;
57790;SDS011;43621;51.798;21.588;2023-03-02T00:26:22;113.30;;;58.30;;
57790;SDS011;43621;51.798;21.588;2023-03-02T00:30:24;128.90;;;63.10;;
57790;SDS011;43621;51.798;21.588;2023-03-02T00:34:26;130.90;;;67.20;;
57790;SDS011;43621;51.798;21.588;2023-03-02T00:38:28;138.30;;;67.60;;
57790;SDS011;43621;51.798;21.588;2023-03-02T00:42:30;139.30;;;63.10;;
57790;SDS011;43621;51.798;21.588;2023-03-02T00:46:32;119.60;;;57.70;;
57790;SDS011;43621;51.798;21.588;2023-03-02T00:50:34;171.50;;;65.10;;
57790;SDS011;43621;51.798;21.588;2023-03-02T00:54:41;134.40;;;55.80;;
57790;SDS011;43621;51.798;21.588;2023-03-02T00:58:43;134.40;;;56.90;;
57790;SDS011;43621;51.798;21.588;2023-03-02T01:02:45;162.30;;;66.30;;
57790;SDS011;43621;51.798;21.588;2023-03-02T01:06:47;140.10;;;60.90;;
57790;SDS011;43621;51.798;21.588;2023-03-02T01:10:49;147.30;;;62.20;;
57790;SDS011;43621;51.798;21.588;2023-03-02T01:14:53;177.60;;;64.20;;
57790;SDS011;43621;51.798;21.588;2023-03-02T01:18:54;177.90;;;69.30;;
57790;SDS011;43621;51.798;21.588;2023-03-02T01:22:56;143.80;;;61.10;;
57790;SDS011;43621;51.798;21.588;2023-03-02T01:26:58;145.80;;;63.30;;
57790;SDS011;43621;51.798;21.588;2023-03-02T01:31:00;156.40;;;65.60;;
57790;SDS011;43621;51.798;21.588;2023-03-02T01:35:05;140.50;;;58.90;;
57790;SDS011;43621;51.798;21.588;2023-03-02T01:39:07;137.40;;;60.50;;
57790;SDS011;43621;51.798;21.588;2023-03-02T01:43:11;141.80;;;62.10;;
57790;SDS011;43621;51.798;21.588;2023-03-02T01:47:34;152.60;;;62.20;;
57790;SDS011;43621;51.798;21.588;2023-03-02T01:51:40;181.40;;;68.20;;
57790;SDS011;43621;51.798;21.588;2023-03-02T01:55:45;174.10;;;67.70;;
57790;SDS011;43621;51.798;21.588;2023-03-02T01:59:48;191.80;;;76.40;;
57790;SDS011;43621;51.798;21.588;2023-03-02T02:03:56;194.00;;;73.00;;
57790;SDS011;43621;51.798;21.588;2023-03-02T02:07:58;173.40;;;67.50;;
57790;SDS011;43621;51.798;21.588;2023-03-02T02:12:01;134.70;;;57.40;;
57790;SDS011;43621;51.798;21.588;2023-03-02T02:16:03;151.50;;;61.70;;
57790;SDS011;43621;51.798;21.588;2023-03-02T02:24:21;134.50;;;56.00;;
57790;SDS011;43621;51.798;21.588;2023-03-02T02:28:41;143.90;;;62.40;;
57790;SDS011;43621;51.798;21.588;2023-03-02T02:32:48;175.30;;;64.90;;
57790;SDS011;43621;51.798;21.588;2023-03-02T02:36:54;153.60;;;59.30;;
57790;SDS011;43621;51.798;21.588;2023-03-02T02:41:04;156.20;;;61.40;;
57790;SDS011;43621;51.798;21.588;2023-03-02T02:45:30;168.60;;;64.00;;
57790;SDS011;43621;51.798;21.588;2023-03-02T02:49:35;150.40;;;60.60;;
57790;SDS011;43621;51.798;21.588;2023-03-02T02:57:50;100.60;;;46.10;;
57790;SDS011;43621;51.798;21.588;2023-03-02T03:01:57;92.50;;;45.20;;
57790;SDS011;43621;51.798;21.588;2023-03-02T03:06:04;95.00;;;43.90;;
57790;SDS011;43621;51.798;21.588;2023-03-02T03:10:10;102.30;;;47.10;;
57790;SDS011;43621;51.798;21.588;2023-03-02T03:14:26;110.00;;;48.20;;
57790;SDS011;43621;51.798;21.588;2023-03-02T03:18:31;106.10;;;49.00;;
57790;SDS011;43621;51.798;21.588;2023-03-02T03:22:33;120.60;;;50.20;;
57790;SDS011;43621;51.798;21.588;2023-03-02T03:26:36;121.80;;;52.40;;
57790;SDS011;43621;51.798;21.588;2023-03-02T03:30:38;122.40;;;51.00;;
57790;SDS011;43621;51.798;21.588;2023-03-02T03:34:41;112.90;;;49.90;;
57790;SDS011;43621;51.798;21.588;2023-03-02T03:38:44;95.20;;;43.50;;
57790;SDS011;43621;51.798;21.588;2023-03-02T03:42:46;81.70;;;40.40;;
57790;SDS011;43621;51.798;21.588;2023-03-02T03:46:48;75.70;;;36.50;;
57790;SDS011;43621;51.798;21.588;2023-03-02T03:50:51;84.60;;;37.90;;
57790;SDS011;43621;51.798;21.588;2023-03-02T03:54:53;80.90;;;36.80;;
57790;SDS011;43621;51.798;21.588;2023-03-02T03:58:55;92.30;;;41.60;;
57790;SDS011;43621;51.798;21.588;2023-03-02T04:03:07;84.80;;;37.60;;
57790;SDS011;43621;51.798;21.588;2023-03-02T04:07:09;95.60;;;41.80;;
57790;SDS011;43621;51.798;21.588;2023-03-02T04:11:11;96.30;;;42.90;;
57790;SDS011;43621;51.798;21.588;2023-03-02T04:15:14;81.50;;;37.00;;
57790;SDS011;43621;51.798;21.588;2023-03-02T04:19:16;86.40;;;38.90;;
57790;SDS011;43621;51.798;21.588;2023-03-02T04:23:18;91.90;;;39.60;;
57790;SDS011;43621;51.798;21.588;2023-03-02T04:27:20;73.50;;;34.60;;
57790;SDS011;43621;51.798;21.588;2023-03-02T04:31:22;76.50;;;35.30;;
57790;SDS011;43621;51.798;21.588;2023-03-02T04:35:24;76.80;;;36.90;;
57790;SDS011;43621;51.798;21.588;2023-03-02T04:39:26;70.70;;;34.00;;
57790;SDS011;43621;51.798;21.588;2023-03-02T04:43:28;80.50;;;37.10;;
57790;SDS011;43621;51.798;21.588;2023-03-02T04:47:29;72.20;;;32.20;;
57790;SDS011;43621;51.798;21.588;2023-03-02T04:51:39;77.20;;;36.10;;
57790;SDS011;43621;51.798;21.588;2023-03-02T04:55:42;91.60;;;39.60;;
57790;SDS011;43621;51.798;21.588;2023-03-02T04:59:44;87.50;;;39.80;;
57790;SDS011;43621;51.798;21.588;2023-03-02T05:03:46;90.00;;;41.80;;
57790;SDS011;43621;51.798;21.588;2023-03-02T05:07:48;94.00;;;48.60;;
57790;SDS011;43621;51.798;21.588;2023-03-02T05:11:51;81.70;;;34.30;;
57790;SDS011;43621;51.798;21.588;2023-03-02T05:15:55;90.00;;;39.10;;
57790;SDS011;43621;51.798;21.588;2023-03-02T05:19:58;73.20;;;35.30;;
57790;SDS011;43621;51.798;21.588;2023-03-02T05:23:59;89.80;;;38.70;;
57790;SDS011;43621;51.798;21.588;2023-03-02T05:28:02;73.10;;;33.10;;
57790;SDS011;43621;51.798;21.588;2023-03-02T05:32:04;79.20;;;34.50;;
57790;SDS011;43621;51.798;21.588;2023-03-02T05:36:06;69.70;;;31.40;;
57790;SDS011;43621;51.798;21.588;2023-03-02T05:40:09;68.00;;;30.30;;
57790;SDS011;43621;51.798;21.588;2023-03-02T05:44:13;80.40;;;34.00;;
57790;SDS011;43621;51.798;21.588;2023-03-02T05:48:15;133.00;;;48.40;;
57790;SDS011;43621;51.798;21.588;2023-03-02T05:52:17;269.30;;;86.80;;
57790;SDS011;43621;51.798;21.588;2023-03-02T05:56:19;249.10;;;81.00;;
57790;SDS011;43621;51.798;21.588;2023-03-02T06:00:23;241.90;;;81.00;;
57790;SDS011;43621;51.798;21.588;2023-03-02T06:04:25;142.50;;;53.60;;
57790;SDS011;43621;51.798;21.588;2023-03-02T06:08:27;102.20;;;41.00;;
57790;SDS011;43621;51.798;21.588;2023-03-02T06:12:29;100.80;;;37.40;;
57790;SDS011;43621;51.798;21.588;2023-03-02T06:16:31;182.00;;;52.90;;
57790;SDS011;43621;51.798;21.588;2023-03-02T06:20:34;213.40;;;59.50;;
57790;SDS011;43621;51.798;21.588;2023-03-02T06:24:35;105.20;;;36.20;;
57790;SDS011;43621;51.798;21.588;2023-03-02T06:28:37;83.30;;;31.60;;
57790;SDS011;43621;51.798;21.588;2023-03-02T06:32:40;55.30;;;23.30;;
57790;SDS011;43621;51.798;21.588;2023-03-02T06:36:42;83.40;;;30.90;;
57790;SDS011;43621;51.798;21.588;2023-03-02T06:40:44;63.00;;;24.20;;
57790;SDS011;43621;51.798;21.588;2023-03-02T06:44:46;85.10;;;26.60;;
57790;SDS011;43621;51.798;21.588;2023-03-02T06:48:49;44.20;;;18.90;;
57790;SDS011;43621;51.798;21.588;2023-03-02T06:52:50;45.80;;;18.00;;
57790;SDS011;43621;51.798;21.588;2023-03-02T06:56:52;76.80;;;38.70;;
57790;SDS011;43621;51.798;21.588;2023-03-02T07:00:54;69.90;;;37.00;;
57790;SDS011;43621;51.798;21.588;2023-03-02T07:04:56;71.30;;;35.40;;
57790;SDS011;43621;51.798;21.588;2023-03-02T07:08:58;38.60;;;17.90;;
57790;SDS011;43621;51.798;21.588;2023-03-02T07:13:00;40.60;;;16.50;;
57790;SDS011;43621;51.798;21.588;2023-03-02T07:17:04;26.30;;;13.10;;
57790;SDS011;43621;51.798;21.588;2023-03-02T07:21:06;28.40;;;12.60;;
57790;SDS011;43621;51.798;21.588;2023-03-02T07:25:09;27.70;;;12.60;;
57790;SDS011;43621;51.798;21.588;2023-03-02T07:29:11;19.30;;;8.90;;
57790;SDS011;43621;51.798;21.588;2023-03-02T07:33:13;27.30;;;11.00;;
57790;SDS011;43621;51.798;21.588;2023-03-02T07:37:15;21.90;;;10.00;;
57790;SDS011;43621;51.798;21.588;2023-03-02T07:41:17;26.60;;;11.70;;
57790;SDS011;43621;51.798;21.588;2023-03-02T07:45:19;31.20;;;12.80;;
57790;SDS011;43621;51.798;21.588;2023-03-02T07:49:25;21.80;;;9.90;;
57790;SDS011;43621;51.798;21.588;2023-03-02T07:53:27;25.30;;;11.70;;
57790;SDS011;43621;51.798;21.588;2023-03-02T07:57:29;60.10;;;26.30;;
57790;SDS011;43621;51.798;21.588;2023-03-02T08:01:31;26.00;;;12.50;;
57790;SDS011;43621;51.798;21.588;2023-03-02T08:05:33;39.30;;;17.60;;
57790;SDS011;43621;51.798;21.588;2023-03-02T08:09:36;30.50;;;14.70;;
57790;SDS011;43621;51.798;21.588;2023-03-02T08:13:39;20.70;;;9.10;;
57790;SDS011;43621;51.798;21.588;2023-03-02T08:17:42;16.70;;;7.70;;
57790;SDS011;43621;51.798;21.588;2023-03-02T08:21:45;15.60;;;8.00;;
57790;SDS011;43621;51.798;21.588;2023-03-02T08:25:47;14.40;;;6.60;;
57790;SDS011;43621;51.798;21.588;2023-03-02T08:29:49;14.80;;;6.60;;
57790;SDS011;43621;51.798;21.588;2023-03-02T08:33:51;13.50;;;6.60;;
57790;SDS011;43621;51.798;21.588;2023-03-02T08:37:53;14.10;;;6.40;;
57790;SDS011;43621;51.798;21.588;2023-03-02T08:41:55;11.90;;;5.60;;
57790;SDS011;43621;51.798;21.588;2023-03-02T08:45:58;11.40;;;5.20;;
57790;SDS011;43621;51.798;21.588;2023-03-02T08:50:01;9.90;;;5.60;;
57790;SDS011;43621;51.798;21.588;2023-03-02T08:54:03;17.20;;;6.30;;
57790;SDS011;43621;51.798;21.588;2023-03-02T08:58:05;14.80;;;5.90;;
57790;SDS011;43621;51.798;21.588;2023-03-02T09:02:08;33.10;;;12.10;;
57790;SDS011;43621;51.798;21.588;2023-03-02T09:06:12;54.00;;;15.70;;
57790;SDS011;43621;51.798;21.588;2023-03-02T09:10:15;21.40;;;9.90;;
57790;SDS011;43621;51.798;21.588;2023-03-02T09:14:17;24.00;;;11.70;;
57790;SDS011;43621;51.798;21.588;2023-03-02T09:18:19;27.90;;;13.30;;
57790;SDS011;43621;51.798;21.588;2023-03-02T09:22:20;40.00;;;20.10;;
57790;SDS011;43621;51.798;21.588;2023-03-02T09:26:23;22.00;;;15.60;;
57790;SDS011;43621;51.798;21.588;2023-03-02T09:30:26;14.20;;;7.40;;
57790;SDS011;43621;51.798;21.588;2023-03-02T09:34:28;12.30;;;7.10;;
57790;SDS011;43621;51.798;21.588;2023-03-02T09:38:30;47.10;;;36.60;;
57790;SDS011;43621;51.798;21.588;2023-03-02T09:42:40;23.90;;;13.40;;
57790;SDS011;43621;51.798;21.588;2023-03-02T09:47:04;88.90;;;42.50;;
57790;SDS011;43621;51.798;21.588;2023-03-02T09:55:41;24.20;;;14.70;;
57790;SDS011;43621;51.798;21.588;2023-03-02T09:59:47;132.90;;;67.10;;
57790;SDS011;43621;51.798;21.588;2023-03-02T10:03:56;88.70;;;46.40;;
57790;SDS011;43621;51.798;21.588;2023-03-02T10:08:03;106.00;;;53.20;;
57790;SDS011;43621;51.798;21.588;2023-03-02T10:16:41;30.20;;;15.70;;
57790;SDS011;43621;51.798;21.588;2023-03-02T10:20:51;73.50;;;39.90;;
57790;SDS011;43621;51.798;21.588;2023-03-02T10:33:53;30.40;;;16.80;;
57790;SDS011;43621;51.798;21.588;2023-03-02T10:38:01;21.50;;;9.70;;
57790;SDS011;43621;51.798;21.588;2023-03-02T10:42:13;15.50;;;7.80;;
57790;SDS011;43621;51.798;21.588;2023-03-02T10:46:18;18.40;;;11.40;;
57790;SDS011;43621;51.798;21.588;2023-03-02T10:50:21;26.30;;;15.90;;
57790;SDS011;43621;51.798;21.588;2023-03-02T10:54:24;12.40;;;8.30;;
57790;SDS011;43621;51.798;21.588;2023-03-02T10:58:29;21.20;;;11.90;;
57790;SDS011;43621;51.798;21.588;2023-03-02T11:02:33;13.60;;;8.90;;
57790;SDS011;43621;51.798;21.588;2023-03-02T11:06:37;10.40;;;6.00;;
57790;SDS011;43621;51.798;21.588;2023-03-02T11:10:40;86.50;;;48.00;;
57790;SDS011;43621;51.798;21.588;2023-03-02T11:15:01;30.20;;;16.50;;
57790;SDS011;43621;51.798;21.588;2023-03-02T11:19:08;18.50;;;8.00;;
57790;SDS011;43621;51.798;21.588;2023-03-02T11:23:23;11.30;;;6.70;;
57790;SDS011;43621;51.798;21.588;2023-03-02T11:27:35;34.60;;;8.70;;
57790;SDS011;43621;51.798;21.588;2023-03-02T11:31:42;22.10;;;10.80;;
57790;SDS011;43621;51.798;21.588;2023-03-02T11:35:51;11.60;;;6.70;;
57790;SDS011;43621;51.798;21.588;2023-03-02T11:40:18;14.10;;;7.30;;
57790;SDS011;43621;51.798;21.588;2023-03-02T11:44:33;23.60;;;6.10;;
57790;SDS011;43621;51.798;21.588;2023-03-02T11:48:36;24.80;;;11.40;;
57790;SDS011;43621;51.798;21.588;2023-03-02T11:52:45;15.10;;;7.50;;
57790;SDS011;43621;51.798;21.588;2023-03-02T11:56:51;23.00;;;11.30;;
57790;SDS011;43621;51.798;21.588;2023-03-02T12:00:52;32.80;;;15.60;;
57790;SDS011;43621;51.798;21.588;2023-03-02T12:05:00;62.20;;;27.50;;
57790;SDS011;43621;51.798;21.588;2023-03-02T12:09:11;18.30;;;9.20;;
57790;SDS011;43621;51.798;21.588;2023-03-02T12:17:40;24.90;;;10.60;;
57790;SDS011;43621;51.798;21.588;2023-03-02T12:21:54;17.60;;;7.60;;
57790;SDS011;43621;51.798;21.588;2023-03-02T12:30:10;39.00;;;19.90;;
57790;SDS011;43621;51.798;21.588;2023-03-02T12:34:35;26.50;;;14.60;;
57790;SDS011;43621;51.798;21.588;2023-03-02T12:38:56;45.50;;;18.40;;
57790;SDS011;43621;51.798;21.588;2023-03-02T12:43:31;44.40;;;17.10;;
57790;SDS011;43621;51.798;21.588;2023-03-02T12:47:39;1073.80;;;383.10;;
57790;SDS011;43621;51.798;21.588;2023-03-02T12:51:49;182.80;;;71.40;;
57790;SDS011;43621;51.798;21.588;2023-03-02T12:56:02;53.30;;;25.00;;
57790;SDS011;43621;51.798;21.588;2023-03-02T13:00:04;55.40;;;25.30;;
57790;SDS011;43621;51.798;21.588;2023-03-02T13:04:22;46.40;;;23.60;;
57790;SDS011;43621;51.798;21.588;2023-03-02T13:08:26;57.60;;;24.30;;
57790;SDS011;43621;51.798;21.588;2023-03-02T13:12:30;279.60;;;103.90;;
57790;SDS011;43621;51.798;21.588;2023-03-02T13:16:32;408.40;;;150.60;;
57790;SDS011;43621;51.798;21.588;2023-03-02T13:20:36;192.20;;;90.90;;
57790;SDS011;43621;51.798;21.588;2023-03-02T13:29:03;38.00;;;19.20;;
57790;SDS011;43621;51.798;21.588;2023-03-02T13:33:16;31.50;;;16.10;;
57790;SDS011;43621;51.798;21.588;2023-03-02T13:37:38;39.00;;;19.20;;
57790;SDS011;43621;51.798;21.588;2023-03-02T13:41:50;54.90;;;26.20;;
57790;SDS011;43621;51.798;21.588;2023-03-02T13:45:58;51.40;;;24.00;;
57790;SDS011;43621;51.798;21.588;2023-03-02T13:50:06;49.70;;;26.60;;
57790;SDS011;43621;51.798;21.588;2023-03-02T13:54:11;48.50;;;24.80;;
57790;SDS011;43621;51.798;21.588;2023-03-02T13:58:20;31.10;;;15.10;;
57790;SDS011;43621;51.798;21.588;2023-03-02T14:02:26;34.40;;;16.20;;
57790;SDS011;43621;51.798;21.588;2023-03-02T14:06:29;42.70;;;20.40;;
57790;SDS011;43621;51.798;21.588;2023-03-02T14:10:31;34.10;;;20.40;;
57790;SDS011;43621;51.798;21.588;2023-03-02T14:14:34;63.20;;;27.80;;
57790;SDS011;43621;51.798;21.588;2023-03-02T14:22:46;46.90;;;27.40;;
57790;SDS011;43621;51.798;21.588;2023-03-02T14:26:48;142.00;;;97.90;;
57790;SDS011;43621;51.798;21.588;2023-03-02T14:30:51;64.00;;;40.50;;
57790;SDS011;43621;51.798;21.588;2023-03-02T14:34:55;67.40;;;41.60;;
57790;SDS011;43621;51.798;21.588;2023-03-02T14:38:58;33.80;;;21.10;;
57790;SDS011;43621;51.798;21.588;2023-03-02T14:43:03;33.00;;;18.10;;
57790;SDS011;43621;51.798;21.588;2023-03-02T14:47:05;42.00;;;22.90;;
57790;SDS011;43621;51.798;21.588;2023-03-02T14:51:13;90.00;;;39.00;;
57790;SDS011;43621;51.798;21.588;2023-03-02T14:55:24;93.20;;;53.80;;
57790;SDS011;43621;51.798;21.588;2023-03-02T14:59:28;61.10;;;35.70;;
57790;SDS011;43621;51.798;21.588;2023-03-02T15:03:30;62.30;;;32.50;;
57790;SDS011;43621;51.798;21.588;2023-03-02T15:07:32;136.90;;;69.00;;
57790;SDS011;43621;51.798;21.588;2023-03-02T15:11:34;248.20;;;107.60;;
57790;SDS011;43621;51.798;21.588;2023-03-02T15:15:36;182.90;;;87.30;;
57790;SDS011;43621;51.798;21.588;2023-03-02T15:19:39;141.20;;;76.50;;
57790;SDS011;43621;51.798;21.588;2023-03-02T15:23:40;84.20;;;48.60;;
57790;SDS011;43621;51.798;21.588;2023-03-02T15:27:42;64.10;;;33.20;;
57790;SDS011;43621;51.798;21.588;2023-03-02T15:31:44;88.30;;;42.50;;
57790;SDS011;43621;51.798;21.588;2023-03-02T15:35:53;77.10;;;38.20;;
57790;SDS011;43621;51.798;21.588;2023-03-02T15:39:55;495.10;;;162.60;;
57790;SDS011;43621;51.798;21.588;2023-03-02T15:43:57;143.80;;;62.10;;
57790;SDS011;43621;51.798;21.588;2023-03-02T15:47:58;104.90;;;43.30;;
57790;SDS011;43621;51.798;21.588;2023-03-02T15:52:00;65.20;;;27.70;;
57790;SDS011;43621;51.798;21.588;2023-03-02T15:56:03;71.40;;;34.70;;
57790;SDS011;43621;51.798;21.588;2023-03-02T16:00:09;53.90;;;25.40;;
57790;SDS011;43621;51.798;21.588;2023-03-02T16:04:13;54.20;;;26.50;;
57790;SDS011;43621;51.798;21.588;2023-03-02T16:08:16;54.40;;;26.40;;
57790;SDS011;43621;51.798;21.588;2023-03-02T16:12:17;68.10;;;33.20;;
57790;SDS011;43621;51.798;21.588;2023-03-02T16:16:23;90.30;;;47.20;;
57790;SDS011;43621;51.798;21.588;2023-03-02T16:20:26;70.60;;;29.80;;
57790;SDS011;43621;51.798;21.588;2023-03-02T16:24:28;122.90;;;57.10;;
57790;SDS011;43621;51.798;21.588;2023-03-02T16:28:30;124.80;;;53.90;;
57790;SDS011;43621;51.798;21.588;2023-03-02T16:32:32;219.80;;;78.80;;
57790;SDS011;43621;51.798;21.588;2023-03-02T16:36:35;266.70;;;105.30;;
57790;SDS011;43621;51.798;21.588;2023-03-02T16:40:38;103.60;;;42.10;;
57790;SDS011;43621;51.798;21.588;2023-03-02T16:44:40;161.80;;;57.00;;
57790;SDS011;43621;51.798;21.588;2023-03-02T16:48:45;181.80;;;65.60;;
57790;SDS011;43621;51.798;21.588;2023-03-02T16:52:48;149.80;;;50.90;;
57790;SDS011;43621;51.798;21.588;2023-03-02T16:56:50;62.30;;;28.00;;
57790;SDS011;43621;51.798;21.588;2023-03-02T17:00:52;70.40;;;26.90;;
57790;SDS011;43621;51.798;21.588;2023-03-02T17:04:55;76.40;;;29.90;;
57790;SDS011;43621;51.798;21.588;2023-03-02T17:08:56;57.70;;;24.20;;
57790;SDS011;43621;51.798;21.588;2023-03-02T17:12:58;42.10;;;18.40;;
57790;SDS011;43621;51.798;21.588;2023-03-02T17:17:00;40.30;;;18.10;;
57790;SDS011;43621;51.798;21.588;2023-03-02T17:21:03;43.80;;;19.10;;
57790;SDS011;43621;51.798;21.588;2023-03-02T17:25:05;42.00;;;19.10;;
57790;SDS011;43621;51.798;21.588;2023-03-02T17:29:08;41.50;;;17.70;;
57790;SDS011;43621;51.798;21.588;2023-03-02T17:33:10;63.50;;;25.00;;
57790;SDS011;43621;51.798;21.588;2023-03-02T17:37:12;88.00;;;32.20;;
57790;SDS011;43621;51.798;21.588;2023-03-02T17:41:15;104.90;;;40.00;;
57790;SDS011;43621;51.798;21.588;2023-03-02T17:45:17;100.00;;;41.00;;
57790;SDS011;43621;51.798;21.588;2023-03-02T17:49:21;80.60;;;36.80;;
57790;SDS011;43621;51.798;21.588;2023-03-02T17:53:23;120.20;;;59.70;;
57790;SDS011;43621;51.798;21.588;2023-03-02T17:57:25;178.70;;;80.30;;
57790;SDS011;43621;51.798;21.588;2023-03-02T18:01:28;167.50;;;82.30;;
57790;SDS011;43621;51.798;21.588;2023-03-02T18:05:30;135.00;;;63.70;;
57790;SDS011;43621;51.798;21.588;2023-03-02T18:09:32;109.50;;;51.40;;
57790;SDS011;43621;51.798;21.588;2023-03-02T18:13:34;96.20;;;44.10;;
57790;SDS011;43621;51.798;21.588;2023-03-02T18:17:36;91.80;;;37.40;;
57790;SDS011;43621;51.798;21.588;2023-03-02T18:21:38;85.50;;;32.60;;
57790;SDS011;43621;51.798;21.588;2023-03-02T18:25:42;72.70;;;32.10;;
57790;SDS011;43621;51.798;21.588;2023-03-02T18:29:44;101.50;;;45.60;;
57790;SDS011;43621;51.798;21.588;2023-03-02T18:33:46;128.70;;;57.90;;
57790;SDS011;43621;51.798;21.588;2023-03-02T18:37:48;141.90;;;63.00;;
57790;SDS011;43621;51.798;21.588;2023-03-02T18:41:50;212.60;;;96.80;;
57790;SDS011;43621;51.798;21.588;2023-03-02T18:45:52;209.70;;;96.00;;
57790;SDS011;43621;51.798;21.588;2023-03-02T18:49:54;158.30;;;73.90;;
57790;SDS011;43621;51.798;21.588;2023-03-02T18:53:57;198.00;;;87.10;;
57790;SDS011;43621;51.798;21.588;2023-03-02T18:57:59;193.90;;;89.20;;
57790;SDS011;43621;51.798;21.588;2023-03-02T19:02:05;432.50;;;194.70;;
57790;SDS011;43621;51.798;21.588;2023-03-02T19:06:10;338.80;;;157.20;;
57790;SDS011;43621;51.798;21.588;2023-03-02T19:10:13;402.30;;;177.10;;
57790;SDS011;43621;51.798;21.588;2023-03-02T19:14:15;446.10;;;206.80;;
57790;SDS011;43621;51.798;21.588;2023-03-02T19:18:18;397.20;;;174.90;;
57790;SDS011;43621;51.798;21.588;2023-03-02T19:22:21;507.90;;;243.70;;
57790;SDS011;43621;51.798;21.588;2023-03-02T19:26:23;506.10;;;240.40;;
57790;SDS011;43621;51.798;21.588;2023-03-02T19:30:25;499.30;;;233.70;;
57790;SDS011;43621;51.798;21.588;2023-03-02T19:34:27;484.60;;;223.10;;
57790;SDS011;43621;51.798;21.588;2023-03-02T19:38:29;439.50;;;208.10;;
57790;SDS011;43621;51.798;21.588;2023-03-02T19:42:31;468.80;;;221.60;;
57790;SDS011;43621;51.798;21.588;2023-03-02T19:46:35;468.40;;;226.90;;
57790;SDS011;43621;51.798;21.588;2023-03-02T19:50:37;512.80;;;246.40;;
57790;SDS011;43621;51.798;21.588;2023-03-02T19:54:38;542.00;;;262.50;;
57790;SDS011;43621;51.798;21.588;2023-03-02T19:58:41;527.90;;;260.10;;
57790;SDS011;43621;51.798;21.588;2023-03-02T20:02:48;540.50;;;266.20;;
57790;SDS011;43621;51.798;21.588;2023-03-02T20:06:50;556.20;;;274.30;;
57790;SDS011;43621;51.798;21.588;2023-03-02T20:10:51;516.40;;;250.90;;
57790;SDS011;43621;51.798;21.588;2023-03-02T20:14:53;540.00;;;253.50;;
57790;SDS011;43621;51.798;21.588;2023-03-02T20:18:57;513.20;;;240.90;;
57790;SDS011;43621;51.798;21.588;2023-03-02T20:23:02;514.70;;;238.30;;
57790;SDS011;43621;51.798;21.588;2023-03-02T20:27:05;525.40;;;239.40;;
57790;SDS011;43621;51.798;21.588;2023-03-02T20:31:09;589.30;;;269.40;;
57790;SDS011;43621;51.798;21.588;2023-03-02T20:35:12;561.90;;;256.70;;
57790;SDS011;43621;51.798;21.588;2023-03-02T20:39:16;537.40;;;238.60;;
57790;SDS011;43621;51.798;21.588;2023-03-02T20:43:18;552.30;;;242.10;;
57790;SDS011;43621;51.798;21.588;2023-03-02T20:47:20;523.20;;;234.50;;
57790;SDS011;43621;51.798;21.588;2023-03-02T20:51:23;554.10;;;244.20;;
57790;SDS011;43621;51.798;21.588;2023-03-02T20:55:26;634.10;;;295.20;;
57790;SDS011;43621;51.798;21.588;2023-03-02T20:59:29;665.50;;;319.50;;
57790;SDS011;43621;51.798;21.588;2023-03-02T21:03:31;793.50;;;375.90;;
57790;SDS011;43621;51.798;21.588;2023-03-02T21:07:34;726.90;;;355.30;;
57790;SDS011;43621;51.798;21.588;2023-03-02T21:11:36;706.00;;;347.00;;
57790;SDS011;43621;51.798;21.588;2023-03-02T21:15:38;722.60;;;358.80;;
57790;SDS011;43621;51.798;21.588;2023-03-02T21:19:41;681.50;;;347.10;;
57790;SDS011;43621;51.798;21.588;2023-03-02T21:23:43;690.00;;;347.90;;
57790;SDS011;43621;51.798;21.588;2023-03-02T21:27:46;652.10;;;326.20;;
57790;SDS011;43621;51.798;21.588;2023-03-02T21:31:48;623.20;;;306.80;;
57790;SDS011;43621;51.798;21.588;2023-03-02T21:35:50;640.90;;;315.80;;
57790;SDS011;43621;51.798;21.588;2023-03-02T21:39:52;620.00;;;302.00;;
57790;SDS011;43621;51.798;21.588;2023-03-02T21:43:54;627.90;;;315.00;;
57790;SDS011;43621;51.798;21.588;2023-03-02T21:47:56;615.80;;;305.40;;
57790;SDS011;43621;51.798;21.588;2023-03-02T21:51:58;631.30;;;322.90;;
57790;SDS011;43621;51.798;21.588;2023-03-02T21:56:00;653.30;;;326.20;;
57790;SDS011;43621;51.798;21.588;2023-03-02T22:00:02;670.00;;;330.80;;
57790;SDS011;43621;51.798;21.588;2023-03-02T22:04:05;678.00;;;331.00;;
57790;SDS011;43621;51.798;21.588;2023-03-02T22:08:08;685.90;;;332.50;;
57790;SDS011;43621;51.798;21.588;2023-03-02T22:12:16;705.20;;;347.00;;
57790;SDS011;43621;51.798;21.588;2023-03-02T22:16:27;707.30;;;345.10;;
57790;SDS011;43621;51.798;21.588;2023-03-02T22:20:34;720.10;;;342.70;;
57790;SDS011;43621;51.798;21.588;2023-03-02T22:24:47;729.60;;;351.50;;
57790;SDS011;43621;51.798;21.588;2023-03-02T22:28:50;709.40;;;355.40;;
57790;SDS011;43621;51.798;21.588;2023-03-02T22:32:52;689.80;;;346.10;;
57790;SDS011;43621;51.798;21.588;2023-03-02T22:36:58;617.40;;;302.50;;
57790;SDS011;43621;51.798;21.588;2023-03-02T22:41:08;672.20;;;334.60;;
57790;SDS011;43621;51.798;21.588;2023-03-02T22:45:21;641.00;;;316.90;;
57790;SDS011;43621;51.798;21.588;2023-03-02T22:49:24;634.30;;;307.90;;
57790;SDS011;43621;51.798;21.588;2023-03-02T22:53:27;594.80;;;297.70;;
57790;SDS011;43621;51.798;21.588;2023-03-02T22:57:32;716.90;;;325.50;;
57790;SDS011;43621;51.798;21.588;2023-03-02T23:01:39;611.60;;;291.10;;
57790;SDS011;43621;51.798;21.588;2023-03-02T23:05:43;399.70;;;188.50;;
57790;SDS011;43621;51.798;21.588;2023-03-02T23:09:49;581.80;;;267.00;;
57790;SDS011;43621;51.798;21.588;2023-03-02T23:13:51;554.20;;;251.00;;
57790;SDS011;43621;51.798;21.588;2023-03-02T23:17:55;566.80;;;254.90;;
57790;SDS011;43621;51.798;21.588;2023-03-02T23:21:58;583.10;;;259.50;;
57790;SDS011;43621;51.798;21.588;2023-03-02T23:26:00;544.50;;;239.40;;
57790;SDS011;43621;51.798;21.588;2023-03-02T23:30:02;541.30;;;227.60;;
57790;SDS011;43621;51.798;21.588;2023-03-02T23:34:06;535.40;;;213.00;;
57790;SDS011;43621;51.798;21.588;2023-03-02T23:38:08;542.90;;;211.40;;
57790;SDS011;43621;51.798;21.588;2023-03-02T23:42:10;455.60;;;186.90;;
57790;SDS011;43621;51.798;21.588;2023-03-02T23:46:13;438.80;;;180.40;;
57790;SDS011;43621;51.798;21.588;2023-03-02T23:50:14;437.30;;;184.70;;
57790;SDS011;43621;51.798;21.588;2023-03-02T23:54:16;480.40;;;198.40;;
57790;SDS011;43621;51.798;21.588;2023-03-02T23:58:18;455.60;;;197.50;;
